Time;durP1;ratioP1;P1;durP2;ratioP2;P2;SDS_P1;SDS_P2;PMS_P1;PMS_P2;Temp;Humidity;BMP_temperature;BMP_pressure;BME280_temperature;BME280_humidity;BME280_pressure;Samples;Min_cycle;Max_cycle;Signal;HPM_P1;HPM_P2
2023/04/25 00:06:57;;;;;;;1.15;0.52;;;;;;;;;;20918762;28;20041;-68
2023/04/25 00:16:59;;;;;;;2.63;0.45;;;;;;;;;;20915856;28;20045;-69
2023/04/25 00:27:01;;;;;;;2.83;1.10;;;;;;;;;;20913449;28;20387;-69
2023/04/25 00:37:03;;;;;;;1.17;0.50;;;;;;;;;;20912418;28;20053;-69
2023/04/25 00:47:05;;;;;;;1.85;0.60;;;;;;;;;;20910857;28;20056;-69
2023/04/25 00:57:06;;;;;;;3.33;0.82;;;;;;;;;;20911539;28;20515;-69
2023/04/25 01:07:09;;;;;;;1.92;0.55;;;;;;;;;;20909690;28;20045;-70
2023/04/25 01:17:11;;;;;;;2.00;0.70;;;;;;;;;;20869413;28;1137169;-69
2023/04/25 01:27:13;;;;;;;1.00;0.70;;;;;;;;;;20912335;28;20053;-69
2023/04/25 01:37:14;;;;;;;1.15;0.70;;;;;;;;;;20912004;28;20071;-69
2023/04/25 01:47:16;;;;;;;3.17;0.68;;;;;;;;;;20913226;28;20053;-69
2023/04/25 01:57:18;;;;;;;3.45;1.48;;;;;;;;;;20913066;28;20045;-69
2023/04/25 02:07:20;;;;;;;1.80;0.60;;;;;;;;;;20912687;28;20049;-69
2023/04/25 02:17:22;;;;;;;2.20;0.50;;;;;;;;;;20915055;28;20488;-69
2023/04/25 02:27:23;;;;;;;1.58;0.90;;;;;;;;;;20925838;28;20407;-69
2023/04/25 02:37:25;;;;;;;2.22;0.93;;;;;;;;;;20925053;28;20075;-69
2023/04/25 02:47:27;;;;;;;2.60;0.50;;;;;;;;;;20924568;28;20482;-69
2023/04/25 02:57:29;;;;;;;1.08;0.65;;;;;;;;;;20923471;28;20049;-69
2023/04/25 03:07:30;;;;;;;2.50;1.00;;;;;;;;;;20922705;28;20062;-69
2023/04/25 03:17:32;;;;;;;2.67;0.80;;;;;;;;;;20921575;28;20061;-69
2023/04/25 03:27:34;;;;;;;2.28;1.02;;;;;;;;;;20920141;28;20053;-69
2023/04/25 03:37:36;;;;;;;1.92;0.82;;;;;;;;;;20918960;28;20049;-69
2023/04/25 03:47:38;;;;;;;4.15;1.48;;;;;;;;;;20919480;28;20068;-69
2023/04/25 03:57:39;;;;;;;2.33;1.02;;;;;;;;;;20918536;28;20041;-69
2023/04/25 04:07:42;;;;;;;2.50;1.20;;;;;;;;;;20916602;28;20056;-69
2023/04/25 04:17:44;;;;;;;3.30;1.00;;;;;;;;;;20915587;28;20052;-69
2023/04/25 04:27:47;;;;;;;2.22;0.82;;;;;;;;;;20916048;28;20490;-69
2023/04/25 04:37:48;;;;;;;2.88;0.80;;;;;;;;;;20915443;28;20052;-69
2023/04/25 04:47:51;;;;;;;1.33;0.82;;;;;;;;;;20915065;28;20490;-68
2023/04/25 04:57:52;;;;;;;1.85;1.08;;;;;;;;;;20913378;28;20044;-68
2023/04/25 05:07:54;;;;;;;3.78;1.25;;;;;;;;;;20913950;28;20056;-68
2023/04/25 05:17:56;;;;;;;3.33;1.42;;;;;;;;;;20913218;28;20387;-68
2023/04/25 05:27:58;;;;;;;6.53;1.75;;;;;;;;;;20913144;28;20056;-68
2023/04/25 05:38:00;;;;;;;4.63;1.48;;;;;;;;;;20912766;28;20448;-69
2023/04/25 05:48:01;;;;;;;11.52;4.55;;;;;;;;;;20911295;28;20060;-68
2023/04/25 05:58:03;;;;;;;5.85;2.45;;;;;;;;;;20924160;28;20075;-67
2023/04/25 06:08:05;;;;;;;5.65;1.77;;;;;;;;;;20927149;28;20080;-69
2023/04/25 06:18:07;;;;;;;7.05;1.20;;;;;;;;;;20926106;28;20056;-69
2023/04/25 06:28:09;;;;;;;6.22;1.33;;;;;;;;;;20924452;28;20053;-68
2023/04/25 06:38:10;;;;;;;4.00;1.38;;;;;;;;;;20924923;28;20611;-67
2023/04/25 06:48:12;;;;;;;5.28;1.52;;;;;;;;;;20924502;28;20055;-69
2023/04/25 06:58:14;;;;;;;2.60;1.38;;;;;;;;;;20921295;28;20052;-69
2023/04/25 07:08:16;;;;;;;4.90;1.27;;;;;;;;;;20920995;28;20056;-69
2023/04/25 07:18:17;;;;;;;3.85;1.52;;;;;;;;;;20920304;28;20506;-69
2023/04/25 07:28:20;;;;;;;4.00;1.52;;;;;;;;;;20920866;28;20079;-68
2023/04/25 07:38:22;;;;;;;4.40;1.38;;;;;;;;;;20919957;28;20049;-69
2023/04/25 07:48:23;;;;;;;4.32;1.60;;;;;;;;;;20918093;28;20041;-70
2023/04/25 07:58:25;;;;;;;4.70;1.80;;;;;;;;;;20918497;28;20560;-70
2023/04/25 08:08:27;;;;;;;6.55;1.90;;;;;;;;;;20917690;28;20518;-70
2023/04/25 08:18:29;;;;;;;7.22;2.10;;;;;;;;;;20916122;28;20052;-70
2023/04/25 08:28:31;;;;;;;6.10;2.17;;;;;;;;;;20915040;28;20056;-69
2023/04/25 08:38:33;;;;;;;6.47;2.50;;;;;;;;;;20914704;28;20041;-70
2023/04/25 08:48:35;;;;;;;9.25;3.03;;;;;;;;;;20914626;28;20049;-68
2023/04/25 08:58:38;;;;;;;8.20;2.70;;;;;;;;;;20914165;28;20410;-68
2023/04/25 09:08:40;;;;;;;8.38;3.20;;;;;;;;;;20913544;28;20494;-64
2023/04/25 09:18:42;;;;;;;10.85;3.20;;;;;;;;;;20911503;28;20057;-66
2023/04/25 09:28:45;;;;;;;11.02;3.50;;;;;;;;;;20919111;28;20395;-65
2023/04/25 09:38:47;;;;;;;11.70;3.35;;;;;;;;;;20889500;28;20069;-63
2023/04/25 09:48:50;;;;;;;8.05;2.72;;;;;;;;;;20845577;28;20056;-70
2023/04/25 09:58:54;;;;;;;1.83;0.88;;;;;;;;;;20849772;28;20053;-70
2023/04/25 10:08:58;;;;;;;4.75;0.88;;;;;;;;;;20831344;28;20112;-68
2023/04/25 10:19:00;;;;;;;1.42;0.50;;;;;;;;;;20910496;28;20127;-69
2023/04/25 10:29:03;;;;;;;6.15;2.25;;;;;;;;;;20855634;28;20053;-67
2023/04/25 10:39:11;;;;;;;1.63;0.70;;;;;;;;;;20840466;28;20045;-68
2023/04/25 10:49:30;;;;;;;1.35;0.55;;;;;;;;;;20905158;28;20041;-64
2023/04/25 10:59:31;;;;;;;3.38;0.90;;;;;;;;;;20906951;28;20049;-65
2023/04/25 11:09:38;;;;;;;3.80;0.70;;;;;;;;;;20915969;28;20045;-72
2023/04/25 11:19:40;;;;;;;9.85;6.30;;;;;;;;;;20918459;28;20053;-72
2023/04/25 11:29:42;;;;;;;1.35;0.90;;;;;;;;;;20918377;28;20061;-69
2023/04/25 11:39:45;;;;;;;5.28;1.65;;;;;;;;;;20893319;28;20438;-66
2023/04/25 11:49:49;;;;;;;1.02;0.70;;;;;;;;;;20835187;28;20483;-73
2023/04/25 11:59:51;;;;;;;1.65;0.43;;;;;;;;;;20833660;28;20068;-73
2023/04/25 12:09:53;;;;;;;0.90;0.55;;;;;;;;;;20834998;28;20049;-73
2023/04/25 12:19:55;;;;;;;1.10;0.60;;;;;;;;;;20832853;28;20064;-74
2023/04/25 12:29:57;;;;;;;1.92;0.63;;;;;;;;;;20833124;28;20491;-73
2023/04/25 12:39:58;;;;;;;3.45;1.02;;;;;;;;;;20830682;28;20041;-67
2023/04/25 12:50:00;;;;;;;6.70;4.40;;;;;;;;;;20832093;28;20056;-66
2023/04/25 13:00:04;;;;;;;4.05;1.00;;;;;;;;;;20829646;28;20063;-68
2023/04/25 13:10:06;;;;;;;1.30;0.55;;;;;;;;;;20829760;28;20076;-69
2023/04/25 13:20:09;;;;;;;1.75;0.60;;;;;;;;;;20830032;28;20510;-72
2023/04/25 13:40:32;;;;;;;3.20;0.50;;;;;;;;;;20828642;28;20053;-72
2023/04/25 13:50:33;;;;;;;2.25;0.40;;;;;;;;;;20829673;28;20055;-72
2023/04/25 14:00:37;;;;;;;1.42;0.55;;;;;;;;;;20828945;28;20048;-71
2023/04/25 14:10:39;;;;;;;1.95;0.45;;;;;;;;;;20827248;28;20053;-71
2023/04/25 14:20:41;;;;;;;1.88;0.90;;;;;;;;;;20842834;28;20388;-71
2023/04/25 14:30:42;;;;;;;2.55;0.77;;;;;;;;;;20843358;28;20414;-71
2023/04/25 14:40:44;;;;;;;5.25;0.93;;;;;;;;;;20842316;28;20049;-71
2023/04/25 14:50:46;;;;;;;2.95;2.03;;;;;;;;;;20840341;28;20053;-71
2023/04/25 15:00:48;;;;;;;1.80;1.30;;;;;;;;;;20840939;28;20053;-71
2023/04/25 15:10:50;;;;;;;1.40;0.40;;;;;;;;;;20839978;28;20050;-71
2023/04/25 15:20:52;;;;;;;5.97;2.95;;;;;;;;;;20838395;28;20053;-80
2023/04/25 15:30:54;;;;;;;1.38;0.55;;;;;;;;;;20837748;28;20050;-66
2023/04/25 15:40:55;;;;;;;1.65;0.75;;;;;;;;;;20836399;28;20506;-66
2023/04/25 15:50:58;;;;;;;1.75;0.60;;;;;;;;;;20837008;28;20049;-70
2023/04/25 16:00:59;;;;;;;2.40;0.30;;;;;;;;;;20835813;28;20380;-72
2023/04/25 16:11:02;;;;;;;2.00;0.40;;;;;;;;;;20834521;28;20056;-71
2023/04/25 16:21:03;;;;;;;2.33;0.70;;;;;;;;;;20840870;28;20140;-71
2023/04/25 16:31:05;;;;;;;1.33;0.60;;;;;;;;;;20834303;28;20195;-69
2023/04/25 16:41:07;;;;;;;1.38;0.70;;;;;;;;;;20831224;28;20136;-73
2023/04/25 16:51:09;;;;;;;1.35;0.40;;;;;;;;;;20833625;28;20140;-69
2023/04/25 17:01:14;;;;;;;2.40;0.40;;;;;;;;;;20830561;28;20411;-69
2023/04/25 17:11:16;;;;;;;1.45;1.13;;;;;;;;;;20831117;28;20053;-59
2023/04/25 17:21:18;;;;;;;1.92;1.00;;;;;;;;;;20829350;28;20111;-67
2023/04/25 17:31:21;;;;;;;2.53;0.95;;;;;;;;;;20830274;28;20483;-66
2023/04/25 17:41:22;;;;;;;2.05;0.73;;;;;;;;;;20828789;28;20050;-68
2023/04/25 17:51:25;;;;;;;9.20;4.22;;;;;;;;;;20838858;28;20136;-67
2023/04/25 18:01:26;;;;;;;2.63;0.40;;;;;;;;;;20844303;28;20052;-68
2023/04/25 18:11:29;;;;;;;2.20;1.02;;;;;;;;;;20843680;28;20053;-68
2023/04/25 18:21:31;;;;;;;3.65;0.25;;;;;;;;;;20843128;28;20400;-68
2023/04/25 18:31:34;;;;;;;1.27;0.60;;;;;;;;;;20843397;28;20049;-67
2023/04/25 18:41:37;;;;;;;1.80;0.60;;;;;;;;;;20841845;28;20444;-68
2023/04/25 18:51:38;;;;;;;0.45;0.25;;;;;;;;;;20840595;28;20045;-68
2023/04/25 19:01:41;;;;;;;1.83;0.50;;;;;;;;;;20838308;28;20057;-66
2023/04/25 19:11:42;;;;;;;4.57;0.60;;;;;;;;;;20839172;28;20059;-66
2023/04/25 19:21:44;;;;;;;4.05;0.93;;;;;;;;;;20837900;28;20053;-66
2023/04/25 19:31:46;;;;;;;1.60;0.80;;;;;;;;;;20836867;28;20041;-67
2023/04/25 19:41:47;;;;;;;8.20;0.93;;;;;;;;;;20837279;28;20415;-67
2023/04/25 19:51:49;;;;;;;2.03;1.00;;;;;;;;;;20834533;28;20057;-67
2023/04/25 20:01:51;;;;;;;2.72;0.55;;;;;;;;;;20835340;28;20482;-67
2023/04/25 20:11:53;;;;;;;1.20;0.73;;;;;;;;;;20833158;28;20136;-66
2023/04/25 20:21:55;;;;;;;2.50;1.40;;;;;;;;;;20831735;28;20049;-67
2023/04/25 20:31:57;;;;;;;1.35;0.80;;;;;;;;;;20833260;28;20075;-66
2023/04/25 20:41:58;;;;;;;2.33;0.80;;;;;;;;;;20831061;28;20045;-67
2023/04/25 20:52:00;;;;;;;3.90;1.38;;;;;;;;;;20830021;28;20057;-67
2023/04/25 21:02:03;;;;;;;2.13;1.00;;;;;;;;;;20831413;28;20057;-66
2023/04/25 21:12:05;;;;;;;2.78;1.88;;;;;;;;;;20830341;28;20132;-66
2023/04/25 21:22:07;;;;;;;4.30;2.00;;;;;;;;;;20833859;28;20064;-67
2023/04/25 21:32:09;;;;;;;5.10;1.50;;;;;;;;;;20846353;28;20049;-66
2023/04/25 21:42:10;;;;;;;2.25;1.17;;;;;;;;;;20844644;28;20053;-67
2023/04/25 21:52:12;;;;;;;5.22;1.38;;;;;;;;;;20845181;28;20046;-67
2023/04/25 22:02:14;;;;;;;4.28;1.27;;;;;;;;;;20843066;28;20041;-66
2023/04/25 22:12:16;;;;;;;3.90;1.25;;;;;;;;;;20843199;28;20049;-65
2023/04/25 22:22:17;;;;;;;3.38;1.23;;;;;;;;;;20844305;28;20057;-66
2023/04/25 22:32:19;;;;;;;1.40;0.90;;;;;;;;;;20842468;28;20045;-66
2023/04/25 22:42:21;;;;;;;2.22;1.05;;;;;;;;;;20842215;28;20458;-66
2023/04/25 22:52:22;;;;;;;1.52;0.70;;;;;;;;;;20841786;28;20566;-66
2023/04/25 23:02:24;;;;;;;1.95;0.50;;;;;;;;;;20840479;28;20048;-66
2023/04/25 23:12:26;;;;;;;1.23;0.60;;;;;;;;;;20840046;28;20103;-66
2023/04/25 23:22:28;;;;;;;1.98;0.60;;;;;;;;;;20838675;28;20061;-66
2023/04/25 23:32:30;;;;;;;7.40;1.58;;;;;;;;;;20838818;28;20468;-67
2023/04/25 23:42:32;;;;;;;5.90;1.13;;;;;;;;;;20838046;28;20056;-65
2023/04/25 23:52:34;;;;;;;5.47;1.52;;;;;;;;;;20835053;28;20041;-66
